createdAt,value
2017-09-21T00:00:47.767Z,91.70
2017-09-21T00:03:16.180Z,91.70
2017-09-21T00:05:44.575Z,92.60
2017-09-21T00:08:12.955Z,92.90
2017-09-21T00:10:41.370Z,93.30
2017-09-21T00:13:10.506Z,93.80
2017-09-21T00:15:38.871Z,93.70
2017-09-21T00:18:07.279Z,94.10
2017-09-21T00:20:35.657Z,93.90
2017-09-21T00:23:04.057Z,92.90
2017-09-21T00:25:32.461Z,92.50
2017-09-21T00:28:01.608Z,93.60
2017-09-21T00:30:30.010Z,93.60
2017-09-21T00:32:58.419Z,93.70
2017-09-21T00:35:27.568Z,94.00
2017-09-21T00:37:56.798Z,94.20
2017-09-21T00:40:25.647Z,93.90
2017-09-21T00:42:54.030Z,93.10
2017-09-21T00:45:22.407Z,92.50
2017-09-21T00:47:50.815Z,92.40
2017-09-21T00:50:19.195Z,92.10
2017-09-21T00:52:47.576Z,92.10
2017-09-21T00:55:16.015Z,91.70
2017-09-21T00:57:44.403Z,91.60
2017-09-21T01:00:12.811Z,91.40
2017-09-21T01:02:41.232Z,91.60
2017-09-21T01:05:09.635Z,91.50
2017-09-21T01:07:38.018Z,91.60
2017-09-21T01:10:06.440Z,91.50
2017-09-21T01:12:34.830Z,91.70
2017-09-21T01:15:04.069Z,92.10
2017-09-21T01:17:32.487Z,92.10
2017-09-21T01:20:00.882Z,92.20
2017-09-21T01:22:29.299Z,92.40
2017-09-21T01:24:57.725Z,91.90
2017-09-21T01:27:26.122Z,92.20
2017-09-21T01:29:55.302Z,92.00
2017-09-21T01:32:23.730Z,92.00
2017-09-21T01:34:52.163Z,91.90
2017-09-21T01:37:21.312Z,92.20
2017-09-21T01:39:49.734Z,92.10
2017-09-21T01:42:18.118Z,92.10
2017-09-21T01:44:47.305Z,92.20
2017-09-21T01:47:15.740Z,92.00
2017-09-21T01:49:44.127Z,92.10
2017-09-21T01:52:12.508Z,92.00
2017-09-21T01:54:40.991Z,92.20
2017-09-21T01:57:09.386Z,92.10
2017-09-21T01:59:37.817Z,92.00
2017-09-21T02:02:06.242Z,92.10
2017-09-21T02:04:35.415Z,92.20
2017-09-21T02:07:03.808Z,92.60
2017-09-21T02:09:32.375Z,92.10
2017-09-21T02:12:00.756Z,92.30
2017-09-21T02:14:29.141Z,92.50
2017-09-21T02:16:57.562Z,92.20
2017-09-21T02:19:25.939Z,92.10
2017-09-21T02:21:54.370Z,92.30
2017-09-21T02:24:22.819Z,91.90
2017-09-21T02:26:51.992Z,91.70
2017-09-21T02:29:20.376Z,91.70
2017-09-21T02:31:48.862Z,91.50
2017-09-21T02:34:18.436Z,91.70
2017-09-21T02:36:46.819Z,91.70
2017-09-21T02:39:15.247Z,92.00
2017-09-21T02:41:43.634Z,92.10
2017-09-21T02:44:12.027Z,92.40
2017-09-21T02:46:40.463Z,92.40
2017-09-21T02:49:08.871Z,92.80
2017-09-21T02:51:37.255Z,93.20
2017-09-21T02:54:05.831Z,93.60
2017-09-21T02:56:34.206Z,93.50
2017-09-21T02:59:02.587Z,93.30
2017-09-21T03:01:30.994Z,93.00
2017-09-21T03:03:59.367Z,93.00
2017-09-21T03:06:27.746Z,93.30
2017-09-21T03:08:56.158Z,93.70
2017-09-21T03:11:24.531Z,93.50
2017-09-21T03:13:52.901Z,93.80
2017-09-21T03:16:21.324Z,94.10
2017-09-21T03:18:50.468Z,93.70
2017-09-21T03:21:18.839Z,94.00
2017-09-21T03:23:47.246Z,93.80
2017-09-21T03:26:15.631Z,93.60
2017-09-21T03:28:44.007Z,93.60
2017-09-21T03:31:12.419Z,94.00
2017-09-21T03:33:40.791Z,94.40
2017-09-21T03:36:09.966Z,94.10
2017-09-21T03:38:38.399Z,94.10
2017-09-21T03:41:06.767Z,94.10
2017-09-21T03:43:35.203Z,94.20
2017-09-21T03:46:04.382Z,93.80
2017-09-21T03:48:32.763Z,93.80
2017-09-21T03:51:01.142Z,93.80
2017-09-21T03:53:29.557Z,94.00
2017-09-21T03:55:58.708Z,94.40
2017-09-21T03:58:27.096Z,94.50
2017-09-21T04:00:55.517Z,94.70
2017-09-21T04:03:23.918Z,94.90
2017-09-21T04:05:52.300Z,95.30
2017-09-21T04:08:20.739Z,95.00
2017-09-21T04:10:49.899Z,95.10
2017-09-21T04:13:18.279Z,95.10
2017-09-21T04:15:46.848Z,95.10
2017-09-21T04:18:15.253Z,95.10
2017-09-21T04:20:43.652Z,94.60
2017-09-21T04:23:12.843Z,94.30
2017-09-21T04:25:41.228Z,94.30
2017-09-21T04:28:10.374Z,94.10
2017-09-21T04:30:38.774Z,94.10
2017-09-21T04:33:07.138Z,94.30
2017-09-21T04:35:35.510Z,94.40
2017-09-21T04:38:04.127Z,94.50
2017-09-21T04:40:32.543Z,94.70
2017-09-21T04:43:00.949Z,95.70
2017-09-21T04:45:29.491Z,95.00
2017-09-21T04:47:58.626Z,93.80
2017-09-21T04:50:27.008Z,93.80
2017-09-21T04:52:55.436Z,93.40
2017-09-21T04:55:24.602Z,93.40
2017-09-21T04:57:52.974Z,93.30
2017-09-21T05:00:21.378Z,93.30
2017-09-21T05:02:49.783Z,93.50
2017-09-21T05:05:18.923Z,93.80
2017-09-21T05:07:47.354Z,93.70
2017-09-21T05:10:16.500Z,94.30
2017-09-21T05:12:44.875Z,94.30
2017-09-21T05:15:13.274Z,93.80
2017-09-21T05:17:41.706Z,94.00
2017-09-21T05:20:10.116Z,93.70
2017-09-21T05:22:39.289Z,94.70
2017-09-21T05:25:07.675Z,94.30
2017-09-21T05:27:36.075Z,94.60
2017-09-21T05:30:05.270Z,94.70
2017-09-21T05:32:33.642Z,94.70
2017-09-21T05:35:02.034Z,94.60
2017-09-21T05:37:30.465Z,94.30
2017-09-21T05:39:59.080Z,93.60
2017-09-21T05:42:27.456Z,93.70
2017-09-21T05:44:55.851Z,93.50
2017-09-21T05:47:24.235Z,93.20
2017-09-21T05:49:52.613Z,93.10
2017-09-21T05:52:21.391Z,93.30
2017-09-21T05:54:49.764Z,93.20
2017-09-21T05:57:18.147Z,92.60
2017-09-21T05:59:46.559Z,91.10
2017-09-21T06:02:14.964Z,88.50
2017-09-21T06:04:44.114Z,82.80
2017-09-21T06:07:12.539Z,82.80
2017-09-21T06:09:41.706Z,79.00
2017-09-21T06:12:10.091Z,78.90
2017-09-21T06:14:38.529Z,77.70
2017-09-21T06:17:06.908Z,76.00
2017-09-21T06:19:35.380Z,73.20
2017-09-21T06:22:03.787Z,72.40
2017-09-21T06:24:32.235Z,70.60
2017-09-21T06:27:00.623Z,67.90
2017-09-21T06:29:29.026Z,64.80
2017-09-21T06:31:57.404Z,63.20
2017-09-21T06:34:25.795Z,62.50
2017-09-21T06:36:54.448Z,60.30
2017-09-21T06:39:23.588Z,59.60
2017-09-21T06:41:52.973Z,59.30
2017-09-21T06:44:21.400Z,59.20
2017-09-21T06:46:49.785Z,59.30
2017-09-21T06:49:18.174Z,59.70
2017-09-21T06:51:46.613Z,59.70
2017-09-21T06:54:15.766Z,58.60
2017-09-21T06:56:44.150Z,58.60
2017-09-21T06:59:12.931Z,56.40
2017-09-21T07:01:41.311Z,55.50
2017-09-21T07:04:09.707Z,55.80
2017-09-21T07:06:38.121Z,56.60
2017-09-21T07:09:07.278Z,53.80
2017-09-21T07:11:35.671Z,53.80
2017-09-21T07:14:04.096Z,53.30
2017-09-21T07:16:32.475Z,53.80
2017-09-21T07:19:00.862Z,53.60
2017-09-21T07:21:29.438Z,53.60
2017-09-21T07:23:57.815Z,52.70
2017-09-21T07:26:26.196Z,52.80
2017-09-21T07:28:54.609Z,51.90
2017-09-21T07:31:22.989Z,51.80
2017-09-21T07:33:52.218Z,51.60
2017-09-21T07:36:21.408Z,50.90
2017-09-21T07:38:49.806Z,50.80
2017-09-21T07:41:18.959Z,47.20
2017-09-21T07:43:47.730Z,47.20
2017-09-21T07:46:16.121Z,47.50
2017-09-21T07:48:44.514Z,46.50
2017-09-21T07:51:12.948Z,45.70
2017-09-21T07:53:41.336Z,46.40
2017-09-21T07:56:09.718Z,45.50
2017-09-21T07:58:38.141Z,44.50
2017-09-21T08:01:06.550Z,45.00
2017-09-21T08:03:34.948Z,45.30
2017-09-21T08:06:03.378Z,45.10
2017-09-21T08:08:31.772Z,44.40
2017-09-21T08:11:00.921Z,45.20
2017-09-21T08:13:29.327Z,45.10
2017-09-21T08:15:57.706Z,44.80
2017-09-21T08:18:26.096Z,44.30
2017-09-21T08:20:54.516Z,44.00
2017-09-21T08:23:22.899Z,43.30
2017-09-21T08:25:51.279Z,43.10
2017-09-21T08:28:19.755Z,42.50
2017-09-21T08:30:48.139Z,42.20
2017-09-21T08:33:16.522Z,42.30
2017-09-21T08:35:44.940Z,41.00
2017-09-21T08:38:13.336Z,40.90
2017-09-21T08:40:42.491Z,40.30
2017-09-21T08:43:10.911Z,40.20
2017-09-21T08:45:40.059Z,41.50
2017-09-21T08:48:08.447Z,42.10
2017-09-21T08:50:36.863Z,40.40
2017-09-21T08:53:06.002Z,39.80
2017-09-21T08:55:34.383Z,40.40
2017-09-21T08:58:02.991Z,40.40
2017-09-21T09:00:31.383Z,39.60
2017-09-21T09:02:59.778Z,40.30
2017-09-21T09:05:28.953Z,41.10
2017-09-21T09:07:57.350Z,41.00
2017-09-21T09:10:25.851Z,42.20
2017-09-21T09:12:54.287Z,44.10
2017-09-21T09:15:22.678Z,45.50
2017-09-21T09:17:51.066Z,47.20
2017-09-21T09:20:20.285Z,50.30
2017-09-21T09:22:49.437Z,49.40
2017-09-21T09:25:17.820Z,49.40
2017-09-21T09:27:46.261Z,47.30
2017-09-21T09:30:14.659Z,44.70
2017-09-21T09:32:43.057Z,42.00
2017-09-21T09:35:11.485Z,39.50
2017-09-21T09:37:39.894Z,40.30
2017-09-21T09:40:08.275Z,40.40
2017-09-21T09:42:36.707Z,38.00
2017-09-21T09:45:05.851Z,38.60
2017-09-21T09:47:34.230Z,38.60
2017-09-21T09:50:02.657Z,37.30
2017-09-21T09:52:31.800Z,38.00
2017-09-21T09:55:00.191Z,37.90
2017-09-21T09:57:28.613Z,36.60
2017-09-21T09:59:57.024Z,36.00
2017-09-21T10:02:25.419Z,34.80
2017-09-21T10:04:53.831Z,34.30
2017-09-21T10:07:22.210Z,33.50
2017-09-21T10:09:50.630Z,33.90
2017-09-21T10:12:19.042Z,33.10
2017-09-21T10:14:47.427Z,33.60
2017-09-21T10:17:15.806Z,34.60
2017-09-21T10:19:44.228Z,34.20
2017-09-21T10:22:13.383Z,36.60
2017-09-21T10:24:41.773Z,36.60
2017-09-21T10:27:10.187Z,37.20
2017-09-21T10:29:39.328Z,38.60
2017-09-21T10:32:07.712Z,38.60
2017-09-21T10:34:36.120Z,38.80
2017-09-21T10:37:04.500Z,37.10
2017-09-21T10:39:32.877Z,36.80
2017-09-21T10:42:01.327Z,38.10
2017-09-21T10:44:29.712Z,38.00
2017-09-21T10:46:58.109Z,39.20
2017-09-21T10:49:27.077Z,41.60
2017-09-21T10:51:55.466Z,42.10
2017-09-21T10:54:23.843Z,41.30
2017-09-21T10:56:52.260Z,39.70
2017-09-21T10:59:21.408Z,36.80
2017-09-21T11:01:49.791Z,36.70
2017-09-21T11:04:18.213Z,34.20
2017-09-21T11:06:47.363Z,32.90
2017-09-21T11:09:15.768Z,32.80
2017-09-21T11:11:44.204Z,33.80
2017-09-21T11:14:12.587Z,31.60
2017-09-21T11:16:40.989Z,31.40
2017-09-21T11:19:09.645Z,29.10
2017-09-21T11:21:38.071Z,30.10
2017-09-21T11:24:06.479Z,32.00
2017-09-21T11:26:34.894Z,34.10
2017-09-21T11:29:03.283Z,34.00
2017-09-21T11:31:31.679Z,35.30
2017-09-21T11:34:00.130Z,37.20
2017-09-21T11:36:28.524Z,39.80
2017-09-21T11:38:56.910Z,41.10
2017-09-21T11:41:25.361Z,42.70
2017-09-21T11:43:53.742Z,43.70
2017-09-21T11:46:22.123Z,43.60
2017-09-21T11:48:50.827Z,42.20
2017-09-21T11:51:19.221Z,41.90
2017-09-21T11:53:47.609Z,40.50
2017-09-21T11:56:16.806Z,37.60
2017-09-21T11:58:45.984Z,37.60
2017-09-21T12:01:14.357Z,37.60
2017-09-21T12:03:42.880Z,38.30
2017-09-21T12:06:12.026Z,38.10
2017-09-21T12:08:40.404Z,38.10
2017-09-21T12:11:08.825Z,40.40
2017-09-21T12:13:37.972Z,38.50
2017-09-21T12:16:06.351Z,38.30
2017-09-21T12:18:34.759Z,38.30
2017-09-21T12:21:03.134Z,37.80
2017-09-21T12:23:31.612Z,37.70
2017-09-21T12:26:00.027Z,35.60
2017-09-21T12:28:28.408Z,36.20
2017-09-21T12:30:56.802Z,36.30
2017-09-21T12:33:25.246Z,34.50
2017-09-21T12:35:54.386Z,32.20
2017-09-21T12:38:22.771Z,32.20
2017-09-21T12:40:51.183Z,34.00
2017-09-21T12:43:19.568Z,33.90
2017-09-21T12:45:47.951Z,31.90
2017-09-21T12:48:16.372Z,33.70
2017-09-21T12:50:44.809Z,33.90
2017-09-21T12:53:13.956Z,33.30
2017-09-21T12:55:42.379Z,33.20
2017-09-21T12:58:10.767Z,33.70
2017-09-21T13:00:39.207Z,34.40
2017-09-21T13:03:07.624Z,35.10
2017-09-21T13:05:36.004Z,33.70
2017-09-21T13:08:04.414Z,34.80
2017-09-21T13:10:32.839Z,35.50
2017-09-21T13:13:01.211Z,34.80
2017-09-21T13:15:29.592Z,35.70
2017-09-21T13:17:58.033Z,34.30
2017-09-21T13:20:26.408Z,35.60
2017-09-21T13:22:54.795Z,35.20
2017-09-21T13:25:23.198Z,35.40
2017-09-21T13:27:51.576Z,35.60
2017-09-21T13:30:19.970Z,35.70
2017-09-21T13:32:48.400Z,34.10
2017-09-21T13:35:16.794Z,36.00
2017-09-21T13:37:45.167Z,37.90
2017-09-21T13:40:13.582Z,35.50
2017-09-21T13:42:41.964Z,36.00
2017-09-21T13:45:10.340Z,37.20
2017-09-21T13:47:38.779Z,36.20
2017-09-21T13:50:07.153Z,35.40
2017-09-21T13:52:35.530Z,34.60
2017-09-21T13:55:04.080Z,34.80
2017-09-21T13:57:32.467Z,37.00
2017-09-21T14:00:01.610Z,37.50
2017-09-21T14:02:30.047Z,37.30
2017-09-21T14:04:59.192Z,38.50
2017-09-21T14:07:27.573Z,38.50
2017-09-21T14:09:55.987Z,38.70
2017-09-21T14:12:24.367Z,39.20
2017-09-21T14:14:53.621Z,38.70
2017-09-21T14:17:22.065Z,38.70
2017-09-21T14:19:51.210Z,39.70
2017-09-21T14:22:19.586Z,39.80
2017-09-21T14:24:48.035Z,39.60
2017-09-21T14:27:16.423Z,40.90
2017-09-21T14:29:44.807Z,40.30
2017-09-21T14:32:13.212Z,41.70
2017-09-21T14:34:41.583Z,41.50
2017-09-21T14:37:09.964Z,41.20
2017-09-21T14:39:38.398Z,42.00
2017-09-21T14:42:06.788Z,42.70
2017-09-21T14:44:35.172Z,43.10
2017-09-21T14:47:03.584Z,42.40
2017-09-21T14:49:31.978Z,43.70
2017-09-21T14:52:00.363Z,44.70
2017-09-21T14:54:29.614Z,43.80
2017-09-21T14:56:57.995Z,43.80
2017-09-21T14:59:26.381Z,42.90
2017-09-21T15:01:55.571Z,42.40
2017-09-21T15:04:23.958Z,42.40
2017-09-21T15:06:52.360Z,43.80
2017-09-21T15:09:20.817Z,43.70
2017-09-21T15:11:49.206Z,44.40
2017-09-21T15:14:17.596Z,43.70
2017-09-21T15:16:46.019Z,44.70
2017-09-21T15:19:14.432Z,44.10
2017-09-21T15:21:42.835Z,43.20
2017-09-21T15:24:11.256Z,43.80
2017-09-21T15:26:39.644Z,44.50
2017-09-21T15:29:08.018Z,45.10
2017-09-21T15:31:36.447Z,46.70
2017-09-21T15:34:04.823Z,46.20
2017-09-21T15:36:33.205Z,46.10
2017-09-21T15:39:01.621Z,45.30
2017-09-21T15:41:30.011Z,43.60
2017-09-21T15:43:58.390Z,43.90
2017-09-21T15:46:26.814Z,44.90
2017-09-21T15:48:55.201Z,45.10
2017-09-21T15:51:23.578Z,47.30
2017-09-21T15:53:52.006Z,45.10
2017-09-21T15:56:20.386Z,44.00
2017-09-21T15:58:48.870Z,44.60
2017-09-21T16:01:17.275Z,45.30
2017-09-21T16:03:45.657Z,45.60
2017-09-21T16:06:14.039Z,45.50
2017-09-21T16:08:42.457Z,45.30
2017-09-21T16:11:11.618Z,46.50
2017-09-21T16:13:40.021Z,46.40
2017-09-21T16:16:08.434Z,46.20
2017-09-21T16:18:36.830Z,46.40
2017-09-21T16:21:05.208Z,47.00
2017-09-21T16:23:33.714Z,46.30
2017-09-21T16:26:02.093Z,46.60
2017-09-21T16:28:30.498Z,47.80
2017-09-21T16:30:58.918Z,47.90
2017-09-21T16:33:27.308Z,48.40
2017-09-21T16:35:55.702Z,48.20
2017-09-21T16:38:24.139Z,48.50
2017-09-21T16:40:53.295Z,49.00
2017-09-21T16:43:21.682Z,49.00
2017-09-21T16:45:50.096Z,49.30
2017-09-21T16:48:18.502Z,50.70
2017-09-21T16:50:46.883Z,51.00
2017-09-21T16:53:15.349Z,51.50
2017-09-21T16:55:43.730Z,53.40
2017-09-21T16:58:12.111Z,54.60
2017-09-21T17:00:40.531Z,55.20
2017-09-21T17:03:08.921Z,56.00
2017-09-21T17:05:37.298Z,56.80
2017-09-21T17:08:06.058Z,57.10
2017-09-21T17:10:34.467Z,57.90
2017-09-21T17:13:02.843Z,58.80
2017-09-21T17:15:31.274Z,59.50
2017-09-21T17:17:59.670Z,59.90
2017-09-21T17:20:28.067Z,61.00
2017-09-21T17:22:56.582Z,62.00
2017-09-21T17:25:25.774Z,63.80
2017-09-21T17:27:54.981Z,64.80
2017-09-21T17:30:23.408Z,64.70
2017-09-21T17:32:51.798Z,65.30
2017-09-21T17:35:20.188Z,65.90
2017-09-21T17:37:48.606Z,66.90
2017-09-21T17:40:17.110Z,68.20
2017-09-21T17:42:45.515Z,67.70
2017-09-21T17:45:13.996Z,68.20
2017-09-21T17:47:42.388Z,67.20
2017-09-21T17:50:10.779Z,67.90
2017-09-21T17:52:39.215Z,69.10
2017-09-21T17:55:07.654Z,69.70
2017-09-21T17:57:36.044Z,69.50
2017-09-21T18:00:04.630Z,69.20
2017-09-21T18:02:33.272Z,71.00
2017-09-21T18:05:01.658Z,71.00
2017-09-21T18:07:30.919Z,71.20
2017-09-21T18:09:59.325Z,71.40
2017-09-21T18:12:27.712Z,70.90
2017-09-21T18:14:56.127Z,72.60
2017-09-21T18:17:24.527Z,73.10
2017-09-21T18:19:53.108Z,72.90
2017-09-21T18:22:21.539Z,72.30
2017-09-21T18:24:50.017Z,72.60
2017-09-21T18:27:19.580Z,73.00
2017-09-21T18:29:48.905Z,73.40
2017-09-21T18:32:17.316Z,73.30
2017-09-21T18:34:46.472Z,73.10
2017-09-21T18:37:14.925Z,73.00
2017-09-21T18:39:43.326Z,72.50
2017-09-21T18:42:11.706Z,73.90
2017-09-21T18:44:40.223Z,75.10
2017-09-21T18:47:08.709Z,76.10
2017-09-21T18:49:37.865Z,76.80
2017-09-21T18:52:06.321Z,76.80
2017-09-21T18:54:34.751Z,77.40
2017-09-21T18:57:03.150Z,78.00
2017-09-21T18:59:32.359Z,77.60
2017-09-21T19:02:00.754Z,77.70
2017-09-21T19:04:29.139Z,78.10
2017-09-21T19:06:57.566Z,78.40
2017-09-21T19:09:25.948Z,78.20
2017-09-21T19:11:55.149Z,78.10
2017-09-21T19:14:23.670Z,78.00
2017-09-21T19:16:53.133Z,78.10
2017-09-21T19:19:21.638Z,78.60
2017-09-21T19:21:50.060Z,79.30
2017-09-21T19:24:18.447Z,79.00
2017-09-21T19:26:46.853Z,79.80
2017-09-21T19:29:16.088Z,80.50
2017-09-21T19:31:44.470Z,80.50
2017-09-21T19:34:12.884Z,80.70
2017-09-21T19:36:41.547Z,80.70
2017-09-21T19:39:09.960Z,81.10
2017-09-21T19:41:38.340Z,81.70
2017-09-21T19:44:06.837Z,82.10
2017-09-21T19:46:35.302Z,82.10
2017-09-21T19:49:04.536Z,83.10
2017-09-21T19:51:32.962Z,83.10
2017-09-21T19:54:01.360Z,83.10
2017-09-21T19:56:29.780Z,83.00
2017-09-21T19:58:58.203Z,82.90
2017-09-21T20:01:26.609Z,83.00
2017-09-21T20:03:55.781Z,83.50
2017-09-21T20:06:24.202Z,83.30
2017-09-21T20:08:53.459Z,83.20
2017-09-21T20:11:21.835Z,83.00
2017-09-21T20:13:50.615Z,83.10
2017-09-21T20:16:19.063Z,83.40
2017-09-21T20:18:47.568Z,84.00
2017-09-21T20:21:16.104Z,85.10
2017-09-21T20:23:45.246Z,84.80
2017-09-21T20:26:13.629Z,84.80
2017-09-21T20:28:42.047Z,84.70
2017-09-21T20:31:10.434Z,84.90
2017-09-21T20:33:39.596Z,85.10
2017-09-21T20:36:08.025Z,85.00
2017-09-21T20:38:36.415Z,84.80
2017-09-21T20:41:04.783Z,85.30
2017-09-21T20:43:33.237Z,85.30
2017-09-21T20:46:01.822Z,85.60
2017-09-21T20:48:30.997Z,85.70
2017-09-21T20:50:59.538Z,85.70
2017-09-21T20:53:27.998Z,85.30
2017-09-21T20:55:57.161Z,84.80
2017-09-21T20:58:25.572Z,84.80
2017-09-21T21:00:54.731Z,84.00
2017-09-21T21:03:23.149Z,84.00
2017-09-21T21:05:52.370Z,84.10
2017-09-21T21:08:20.743Z,84.00
2017-09-21T21:10:49.122Z,84.10
2017-09-21T21:13:17.527Z,84.80
2017-09-21T21:15:45.906Z,84.90
2017-09-21T21:18:14.283Z,85.50
2017-09-21T21:20:42.689Z,86.20
2017-09-21T21:23:11.858Z,85.70
2017-09-21T21:25:40.270Z,85.70
2017-09-21T21:28:08.702Z,86.30
2017-09-21T21:30:37.083Z,86.80
2017-09-21T21:33:05.460Z,86.40
2017-09-21T21:35:33.921Z,86.60
2017-09-21T21:38:02.291Z,86.50
2017-09-21T21:40:30.738Z,86.10
2017-09-21T21:42:59.147Z,87.30
2017-09-21T21:45:27.526Z,86.80
2017-09-21T21:47:56.666Z,86.70
2017-09-21T21:50:25.245Z,86.60
2017-09-21T21:52:53.726Z,86.20
2017-09-21T21:55:22.122Z,86.00
2017-09-21T21:57:50.565Z,85.50
2017-09-21T22:00:18.948Z,85.10
2017-09-21T22:02:47.327Z,85.30
2017-09-21T22:05:15.768Z,85.60
2017-09-21T22:07:44.969Z,85.90
2017-09-21T22:10:14.105Z,86.40
2017-09-21T22:12:42.530Z,86.40
2017-09-21T22:15:10.914Z,86.70
2017-09-21T22:17:39.303Z,87.40
2017-09-21T22:20:08.490Z,88.30
2017-09-21T22:22:36.866Z,88.30
2017-09-21T22:25:05.258Z,88.10
2017-09-21T22:27:33.674Z,89.30
2017-09-21T22:30:02.050Z,89.00
2017-09-21T22:32:30.432Z,89.80
2017-09-21T22:34:58.842Z,89.40
2017-09-21T22:37:27.223Z,89.50
2017-09-21T22:39:55.592Z,90.00
2017-09-21T22:42:24.134Z,90.00
2017-09-21T22:44:52.503Z,90.10
2017-09-21T22:47:20.886Z,90.30
2017-09-21T22:49:49.292Z,90.40
2017-09-21T22:52:17.683Z,90.70
2017-09-21T22:54:46.062Z,90.60
2017-09-21T22:57:14.479Z,90.40
2017-09-21T22:59:43.623Z,90.10
2017-09-21T23:02:11.997Z,90.10
2017-09-21T23:04:40.402Z,89.80
2017-09-21T23:07:08.775Z,89.80
2017-09-21T23:09:37.148Z,90.00
2017-09-21T23:12:05.574Z,89.70
2017-09-21T23:14:34.710Z,90.00
2017-09-21T23:17:03.089Z,89.90
2017-09-21T23:19:31.507Z,89.70
2017-09-21T23:21:59.885Z,89.50
2017-09-21T23:24:28.282Z,89.40
2017-09-21T23:26:57.479Z,89.20
2017-09-21T23:29:26.629Z,89.40
2017-09-21T23:31:55.014Z,89.20
2017-09-21T23:34:23.868Z,89.20
2017-09-21T23:36:52.277Z,89.80
2017-09-21T23:39:21.000Z,90.00
2017-09-21T23:41:49.426Z,90.00
2017-09-21T23:44:17.820Z,89.80
2017-09-21T23:46:46.213Z,89.80
2017-09-21T23:49:14.657Z,89.30
2017-09-21T23:51:43.052Z,89.00
2017-09-21T23:54:11.431Z,88.80
2017-09-21T23:56:39.842Z,88.90
2017-09-21T23:59:08.218Z,89.10
